Archival Weather

Wadi Al Dawasir

Wadi Al Dawasir, Saudi Arabia (OEWD)

Report from: Sunday, October 1, 2023 11:00 PM +03
Current time: Monday, February 26, 2024 1:21 AM +03

Current weather – Weather history – Daily summaries
Weather forecast

Temperature30.0°C (86.0°F)
Heat index28.1°C (82.6°F)
Dew point-2.0°C (28.4°F)
Winds 6 kts (3.1 m/s, 6.9 mph) Southeast (130°)
Clouds Sky clear
Altimeter29.94 in.Hg (1014 mB)
Relative humidity12 %
Density altitude1,782 ft. (543 m)
Remarks Ceiling and visibility OK
Flight conditions Visual Meteorological Conditions
Raw dataOEWD 012000Z 13006KT CAVOK 30/M02 Q1014
An error has occurred. This application may no longer respond until reloaded. Reload 🗙